• Join FlightAware (Why Join?)
  • Login
  • US Flag 
07:35AM EDT


 

Airport Tracker/Info


-or-


 

Live Flight TrackerFlight Track Log ✈ N450KR ✈ 25-Aug-2013 ✈ KGUC - KTUL

Flight Track Log - Related Links

Times and Time Zones

All times are in EDT time to prevent confusion due to time zone crossing. See the N450KR flight status page for this flight to view local times or setup timezone preferences in your user account.

Time Position Orientation Groundspeed Altitude Reporting Facility
EDT Latitude Longitude Course Direction KTS MPH feet Rate Location/Type
11:56AM 38.5178 -106.7036 96° East 256 295 14,400  Level Denver Center
11:57AM 38.5083 -106.5931 96° East 302 348 16,800 1,620 Climbing Denver Center
11:58AM 38.4939 -106.4414 97° East 357 411 18,100 1,440 Climbing Denver Center
11:59AM 38.4814 -106.3000 96° East 399 459 19,800 1,920 Climbing Denver Center
12:01PM 38.4656 -106.1253 97° East 413 475 22,200 2,040 Climbing Denver Center
12:02PM 38.4511 -105.9728 97° East 417 480 24,100 1,320 Climbing Denver Center
12:03PM 38.4386 -105.8514 97° East 427 491 25,000 1,200 Climbing Denver Center
12:04PM 38.4211 -105.6658 97° East 448 516 26,700 1,560 Climbing Denver Center
12:05PM 38.4022 -105.5069 99° East 454 522 28,300 1,680 Climbing Denver Center
12:06PM 38.3717 -105.3500 104° East 458 527 30,200 1,920 Climbing Denver Center
12:07PM 38.3389 -105.1703 103° East 452 520 32,300 1,560 Climbing Denver Center
12:08PM 38.3169 -105.0453 103° East 453 521 33,500 1,620 Climbing Denver Center
12:09PM 38.2783 -104.8422 104° East 462 532 35,700 1,620 Climbing Denver Center
12:10PM 38.2492 -104.6892 104° East 464 534 37,300 1,500 Climbing Denver Center
12:11PM 38.2111 -104.4836 103° East 468 539 39,200 1,560 Climbing Denver Center
12:12PM 38.1772 -104.3125 104° East 450 518 40,600 840 Climbing Denver Center
12:13PM 38.1497 -104.1683 104° East 440 506 41,000 180 Climbing Denver Center
12:14PM 38.1192 -104.0131 104° East 462 532 41,000  Level Denver Center
12:15PM 38.0831 -103.8317 104° East 471 542 41,000  Level Denver Center
12:16PM 38.0522 -103.6764 104° East 471 542 41,000  Level Denver Center
12:17PM 38.0150 -103.4933 104° East 478 550 41,000  Level Denver Center
12:18PM 37.9833 -103.3372 104° East 477 549 41,000  Level Denver Center
12:19PM 37.9564 -103.2028 104° East 488 562 41,000  Level Denver Center
12:21PM 37.9075 -102.9644 105° East 484 557 41,000  Level Denver Center
12:22PM 37.8700 -102.7839 105° East 475 547 41,000  Level Denver Center
12:23PM 37.8369 -102.6289 105° East 475 547 41,000  Level Denver Center
12:24PM 37.8003 -102.4583 105° East 474 545 41,000  Level Denver Center
12:25PM 37.7742 -102.3303 104° East 472 543 41,000  Level Kansas City Center
12:26PM 37.7347 -102.1492 105° East 476 548 41,000  Level Kansas City Center
12:27PM 37.7022 -101.9969 105° East 474 545 41,000  Level Kansas City Center
12:28PM 37.6633 -101.8181 105° East 474 545 41,000  Level Kansas City Center
12:29PM 37.6300 -101.6661 105° East 472 543 41,000  Level Kansas City Center
12:30PM 37.5906 -101.4881 106° East 472 543 41,000  Level Kansas City Center
12:31PM 37.5575 -101.3369 105° East 472 543 41,000  Level Kansas City Center
12:32PM 37.5181 -101.1600 106° East 472 543 41,000  Level Kansas City Center
12:33PM 37.4842 -101.0100 106° East 472 543 41,000  Level Kansas City Center
12:34PM 37.4450 -100.8336 106° East 474 545 41,000 120 Level Kansas City Center
12:35PM 37.4122 -100.6831 105° East 473 544 41,300 660 Climbing Kansas City Center
12:36PM 37.3722 -100.5072 106° East 472 543 42,400 780 Climbing Kansas City Center
12:37PM 37.3375 -100.3556 106° East 473 544 43,000 240 Climbing Kansas City Center
12:38PM 37.2986 -100.1819 106° East 466 536 43,000  Level Kansas City Center
12:39PM 37.2633 -100.0333 107° East 466 536 43,000  Level Kansas City Center
12:40PM 37.2236 -99.8594 106° East 465 535 43,000  Level Kansas City Center
12:41PM 37.1878 -99.7111 107° East 465 535 43,000  Level Kansas City Center
12:42PM 37.1525 -99.5603 106° East 469 540 43,000  Level Kansas City Center
12:43PM 37.1114 -99.3797 106° East 472 543 43,000  Level Kansas City Center
12:44PM 37.0733 -99.2222 107° East 471 542 43,000  Level Kansas City Center
12:45PM 37.0344 -99.0642 107° East 472 543 43,000  Level Kansas City Center
12:46PM 36.9967 -98.9078 107° East 469 540 43,000 -240 Level Kansas City Center
12:47PM 36.9581 -98.7483 107° East 473 544 42,500 -780 Descending Kansas City Center
12:48PM 36.9192 -98.5942 107° East 470 541 41,400 -1,680 Descending Kansas City Center
12:49PM 36.8806 -98.4375 107° East 469 540 39,200 -2,460 Descending Kansas City Center
12:50PM 36.8339 -98.2514 107° East 472 543 36,400 -2,460 Descending Kansas City Center
12:51PM 36.7936 -98.0894 107° East 474 545 34,000 -2,340 Descending Kansas City Center
12:52PM 36.7539 -97.9314 107° East 474 545 31,600 -2,340 Descending Kansas City Center
12:53PM 36.7128 -97.7736 108° East 476 548 29,300 -2,160 Descending Kansas City Center
12:54PM 36.6778 -97.6286 107° East 468 539 27,100 -2,100 Descending Kansas City Center
12:55PM 36.6414 -97.4822 107° East 456 525 25,000 -2,160 Descending Kansas City Center
12:57PM 36.6017 -97.3308 108° East 437 503 22,700 -2,100 Descending Kansas City Center
12:58PM 36.5669 -97.1997 108° East 416 479 20,700 -2,220 Descending Kansas City Center
12:59PM 36.5247 -97.0386 108° East 408 470 18,200 -2,160 Descending Kansas City Center
01:00PM 36.4906 -96.9089 108° East 402 463 16,200 -1,920 Descending Kansas City Center
01:01PM 36.4572 -96.7833 108° East 389 448 14,300 -1,860 Descending Kansas City Center
01:01PM 36.4364 -96.7064 109° East 371 427 13,200 -1,800 Descending Kansas City Center
01:02PM 36.3981 -96.5658 109° East 344 396 11,100 -1,500 Descending Kansas City Center
01:04PM 36.3811 -96.4614 101° East 292 336 9,900 -1,500 Descending Kansas City Center
01:05PM 36.3692 -96.3644 99° East 281 323 8,100 -1,680 Descending Kansas City Center
01:06PM 36.3531 -96.2706 102° East 275 316 6,600 -1,500 Descending Kansas City Center
01:07PM 36.3292 -96.1828 109° East 268 308 5,200 -1,500 Descending Kansas City Center
01:08PM 36.3072 -96.0975 108° East 261 300 3,700 -1,380 Descending Kansas City Center
01:09PM 36.2956 -96.0058 99° East 243 280 2,500 -900 Descending Kansas City Center
01:10PM 36.2961 -95.9383 89° East 184 212 2,000 -360 Descending Kansas City Center
01:11PM 36.2789 -95.8836 111° Southeast 160 184 1,800 -480 Descending Kansas City Center
01:11PM 36.2428 -95.8806 176° South 150 173 1,100 -660 Descending Kansas City Center
01:12PM 36.2256 -95.8811 181° South 163 188 900 -420 Descending Kansas City Center
01:14PM 36.1984 -95.8881 122° Southeast  Level Estimated
01:21PM 36.1984 -95.8881 122° Southeast  Level Estimated